createdAt,value
2017-04-14T06:32:01.924Z,9.04
2017-04-14T06:33:03.354Z,8.90
2017-04-14T06:34:04.774Z,9.05
2017-04-14T06:35:06.199Z,8.97
2017-04-14T06:36:07.629Z,9.09
2017-04-14T06:37:09.054Z,9.13
2017-04-14T06:38:10.483Z,9.13
2017-04-14T06:39:11.908Z,9.30
2017-04-14T06:40:13.348Z,9.18
2017-04-14T06:41:14.771Z,9.06
2017-04-14T06:42:16.194Z,9.23
2017-04-14T06:43:17.627Z,9.30
2017-04-14T06:44:19.048Z,9.15
2017-04-14T06:45:20.475Z,8.97
2017-04-14T06:46:21.898Z,9.10
2017-04-14T06:47:23.333Z,8.99
2017-04-14T06:48:24.760Z,9.24
2017-04-14T06:49:26.191Z,9.43
2017-04-14T06:50:27.610Z,9.43
2017-04-14T06:51:29.036Z,9.39
2017-04-14T06:52:31.265Z,9.21
2017-04-14T06:53:32.814Z,9.24
2017-04-14T06:54:34.245Z,9.30
2017-04-14T06:55:35.666Z,9.21
2017-04-14T06:56:37.115Z,9.13
2017-04-14T06:57:38.540Z,9.06
2017-04-14T06:58:39.971Z,9.21
2017-04-14T06:59:41.400Z,9.15
2017-04-14T07:00:42.958Z,9.15
2017-04-14T07:01:44.377Z,9.25
2017-04-14T07:02:45.799Z,9.40
2017-04-14T07:03:47.263Z,9.58
2017-04-14T07:04:48.688Z,9.64
2017-04-14T07:05:50.123Z,9.70
2017-04-14T07:06:51.541Z,9.38
2017-04-14T07:07:52.975Z,9.64
2017-04-14T07:08:54.437Z,9.49
2017-04-14T07:09:55.876Z,9.49
2017-04-14T07:10:57.298Z,9.43
2017-04-14T07:11:58.731Z,9.15
2017-04-14T07:13:00.165Z,9.12
2017-04-14T07:14:01.591Z,9.20
2017-04-14T07:15:03.752Z,9.32
2017-04-14T07:16:05.192Z,9.25
2017-04-14T07:17:06.620Z,8.91
2017-04-14T07:18:08.064Z,9.04
2017-04-14T07:19:09.491Z,8.79
2017-04-14T07:20:10.927Z,8.96
2017-04-14T07:21:12.362Z,9.09
2017-04-14T07:22:13.788Z,9.09
2017-04-14T07:23:15.216Z,9.13
2017-04-14T07:24:16.643Z,9.02
2017-04-14T07:25:18.075Z,9.21
2017-04-14T07:26:19.503Z,9.23
2017-04-14T07:27:20.928Z,9.42
2017-04-14T07:28:22.356Z,9.60
2017-04-14T07:29:23.780Z,9.53
2017-04-14T07:30:25.209Z,9.64
2017-04-14T07:31:26.633Z,9.50
2017-04-14T07:32:28.061Z,9.58
2017-04-14T07:33:30.310Z,9.50
2017-04-14T07:34:31.738Z,9.40
2017-04-14T07:35:33.168Z,9.09
2017-04-14T07:36:34.600Z,9.12
2017-04-14T07:37:36.032Z,9.23
2017-04-14T07:38:37.460Z,9.23
2017-04-14T07:39:38.882Z,9.25
2017-04-14T07:40:40.319Z,9.10
2017-04-14T07:41:41.750Z,9.05
2017-04-14T07:42:43.176Z,9.12
2017-04-14T07:43:44.612Z,9.13
2017-04-14T07:44:46.040Z,9.10
2017-04-14T07:45:47.478Z,9.10
2017-04-14T07:46:48.894Z,9.27
2017-04-14T07:47:50.347Z,9.18
2017-04-14T07:48:51.780Z,9.52
2017-04-14T07:49:53.208Z,9.43
2017-04-14T07:50:54.683Z,9.30
2017-04-14T07:51:56.077Z,9.30
2017-04-14T07:52:57.505Z,9.16
2017-04-14T07:53:58.944Z,9.43
2017-04-14T07:55:00.369Z,9.21
2017-04-14T07:56:01.803Z,9.42
2017-04-14T07:57:03.251Z,9.49
2017-04-14T07:58:04.684Z,9.50
2017-04-14T07:59:06.115Z,9.49
2017-04-14T08:00:07.541Z,9.64
2017-04-14T08:01:08.978Z,9.79
2017-04-14T08:02:10.413Z,9.56
2017-04-14T08:03:11.841Z,9.40
2017-04-14T08:04:13.469Z,9.39
2017-04-14T08:05:14.904Z,9.70
2017-04-14T08:06:16.333Z,9.57
2017-04-14T08:07:17.749Z,9.61
2017-04-14T08:08:19.175Z,9.57
2017-04-14T08:09:20.611Z,9.70
2017-04-14T08:10:22.046Z,9.60
2017-04-14T08:11:23.481Z,9.60
2017-04-14T08:12:24.908Z,9.49
2017-04-14T08:13:26.332Z,9.78
2017-04-14T08:14:27.758Z,9.81
2017-04-14T08:15:29.195Z,9.96
2017-04-14T08:16:30.624Z,10.19
2017-04-14T08:17:32.060Z,10.30
2017-04-14T08:18:33.498Z,10.06
2017-04-14T08:19:34.922Z,9.97
2017-04-14T08:20:36.353Z,9.86
2017-04-14T08:21:37.773Z,9.99
2017-04-14T08:22:39.200Z,9.96
2017-04-14T08:23:40.634Z,10.19
2017-04-14T08:24:42.065Z,10.34
2017-04-14T08:25:43.490Z,10.24
2017-04-14T08:26:44.917Z,10.26
2017-04-14T08:27:46.347Z,10.07
2017-04-14T08:28:47.779Z,10.07
2017-04-14T08:29:49.205Z,10.32
2017-04-14T08:30:50.631Z,10.25
2017-04-14T08:31:52.067Z,10.33
2017-04-14T08:32:53.492Z,10.39
2017-04-14T08:33:54.926Z,10.43
2017-04-14T08:34:56.367Z,10.22
2017-04-14T08:35:57.795Z,10.42
2017-04-14T08:36:59.225Z,10.65
2017-04-14T08:38:00.658Z,10.46
2017-04-14T08:39:02.081Z,10.42
2017-04-14T08:40:03.511Z,10.53
2017-04-14T08:41:04.936Z,10.28
2017-04-14T08:42:06.377Z,10.30
2017-04-14T08:43:07.803Z,10.22
2017-04-14T08:44:09.243Z,10.33
2017-04-14T08:45:10.672Z,10.42
2017-04-14T08:46:12.110Z,10.55
2017-04-14T08:47:13.540Z,10.30
2017-04-14T08:48:14.970Z,10.22
2017-04-14T08:49:16.404Z,10.36
2017-04-14T08:50:17.826Z,10.56
2017-04-14T08:51:19.327Z,10.44
2017-04-14T08:52:20.748Z,10.39
2017-04-14T08:53:22.251Z,10.24
2017-04-14T08:54:23.697Z,10.56
2017-04-14T08:55:25.176Z,10.32
2017-04-14T08:56:26.615Z,10.47
2017-04-14T08:57:29.921Z,10.58
2017-04-14T08:58:31.354Z,10.58
2017-04-14T08:59:32.790Z,10.59
2017-04-14T09:00:34.224Z,10.81
2017-04-14T09:01:35.655Z,10.60
2017-04-14T09:02:37.885Z,10.78
2017-04-14T09:03:39.369Z,10.55
2017-04-14T09:04:40.805Z,10.74
2017-04-14T09:05:42.250Z,10.95
2017-04-14T09:06:44.285Z,10.56
2017-04-14T09:07:45.752Z,10.56
2017-04-14T09:08:48.180Z,10.86
2017-04-14T09:09:49.841Z,10.68
2017-04-14T09:10:51.377Z,10.56
2017-04-14T09:11:52.967Z,10.52
2017-04-14T09:12:54.827Z,10.73
2017-04-14T09:13:56.256Z,10.68
2017-04-14T09:14:57.727Z,10.78
2017-04-14T09:15:59.816Z,10.68
2017-04-14T09:17:01.520Z,10.71
2017-04-14T09:18:02.953Z,10.95
2017-04-14T09:19:04.385Z,10.77
2017-04-14T09:20:05.814Z,10.83
2017-04-14T09:21:07.239Z,10.63
2017-04-14T09:22:08.687Z,10.78
2017-04-14T09:23:10.119Z,10.84
2017-04-14T09:24:11.551Z,10.78
2017-04-14T09:25:12.986Z,11.02
2017-04-14T09:26:14.422Z,11.10
2017-04-14T09:27:15.851Z,11.25
2017-04-14T09:28:17.294Z,10.78
2017-04-14T09:29:18.722Z,10.88
2017-04-14T09:30:20.163Z,10.77
2017-04-14T09:31:21.591Z,10.70
2017-04-14T09:32:23.028Z,10.73
2017-04-14T09:33:24.455Z,10.59
2017-04-14T09:34:25.883Z,10.96
2017-04-14T09:35:27.317Z,10.92
2017-04-14T09:36:28.750Z,10.98
2017-04-14T09:37:30.187Z,11.03
2017-04-14T09:38:32.095Z,11.07
2017-04-14T09:39:33.479Z,11.01
2017-04-14T09:40:34.927Z,10.96
2017-04-14T09:41:36.371Z,11.09
2017-04-14T09:42:37.800Z,11.01
2017-04-14T09:43:39.232Z,11.10
2017-04-14T09:44:40.675Z,11.24
2017-04-14T09:45:42.110Z,11.17
2017-04-14T09:46:43.545Z,11.28
2017-04-14T09:47:44.977Z,11.52
2017-04-14T09:48:46.399Z,11.29
2017-04-14T09:49:47.836Z,11.31
2017-04-14T09:50:49.287Z,11.31
2017-04-14T09:51:50.716Z,11.54
2017-04-14T09:52:52.154Z,11.59
2017-04-14T09:53:53.586Z,11.65
2017-04-14T09:54:55.022Z,11.59
2017-04-14T09:55:56.452Z,11.53
2017-04-14T09:56:57.888Z,11.75
2017-04-14T09:57:59.314Z,11.64
2017-04-14T09:59:00.748Z,11.41
2017-04-14T10:00:03.639Z,11.61
2017-04-14T10:01:05.045Z,11.71
2017-04-14T10:02:06.473Z,11.72
2017-04-14T10:03:07.910Z,11.54
2017-04-14T10:04:09.340Z,11.71
2017-04-14T10:05:10.775Z,11.86
2017-04-14T10:06:12.208Z,11.90
2017-04-14T10:07:13.649Z,11.75
2017-04-14T10:08:15.083Z,11.62
2017-04-14T10:09:16.510Z,11.57
2017-04-14T10:10:17.983Z,11.59
2017-04-14T10:11:19.386Z,11.54
2017-04-14T10:12:20.821Z,11.50
2017-04-14T10:13:22.270Z,11.61
2017-04-14T10:14:23.706Z,11.99
2017-04-14T10:15:25.141Z,11.87
2017-04-14T10:16:26.571Z,11.87
2017-04-14T10:17:28.002Z,12.08
2017-04-14T10:18:29.437Z,12.29
2017-04-14T10:19:30.883Z,11.89
2017-04-14T10:20:32.313Z,12.04
2017-04-14T10:21:33.746Z,12.31
2017-04-14T10:22:35.230Z,12.04
2017-04-14T10:23:36.704Z,12.12
2017-04-14T10:24:38.134Z,11.97
2017-04-14T10:25:39.577Z,12.04
2017-04-14T10:26:41.001Z,11.87
2017-04-14T10:27:42.438Z,12.04
2017-04-14T10:28:43.866Z,11.96
2017-04-14T10:29:45.303Z,12.15
2017-04-14T10:30:46.733Z,12.34
2017-04-14T10:31:48.176Z,12.37
2017-04-14T10:32:49.615Z,12.23
2017-04-14T10:33:51.100Z,12.39
2017-04-14T10:34:52.528Z,12.39
2017-04-14T10:35:53.958Z,12.11
2017-04-14T10:36:55.394Z,12.20
2017-04-14T10:37:56.821Z,12.09
2017-04-14T10:38:58.265Z,12.24
2017-04-14T10:39:59.699Z,12.20
2017-04-14T10:41:01.128Z,12.12
2017-04-14T10:42:02.558Z,11.96
2017-04-14T10:43:03.992Z,11.96
2017-04-14T10:44:05.421Z,12.15
2017-04-14T10:45:07.091Z,12.24
2017-04-14T10:46:08.520Z,12.15
2017-04-14T10:47:09.950Z,12.31
2017-04-14T10:48:11.921Z,12.11
2017-04-14T10:49:13.354Z,12.13
2017-04-14T10:50:14.791Z,12.23
2017-04-14T10:51:16.235Z,12.33
2017-04-14T10:52:17.663Z,12.46
2017-04-14T10:53:19.106Z,12.59
2017-04-14T10:54:20.536Z,12.64
2017-04-14T10:55:21.968Z,12.71
2017-04-14T10:56:23.404Z,12.89
2017-04-14T10:57:24.835Z,12.96
2017-04-14T10:58:26.269Z,12.82
2017-04-14T10:59:27.698Z,12.38
2017-04-14T11:00:29.136Z,12.67
2017-04-14T11:01:30.574Z,12.78
2017-04-14T11:02:32.010Z,12.97
2017-04-14T11:03:33.446Z,13.14
2017-04-14T11:04:34.870Z,13.24
2017-04-14T11:05:36.312Z,13.22
2017-04-14T11:06:37.746Z,12.93
2017-04-14T11:07:39.178Z,13.03
2017-04-14T11:08:40.606Z,13.24
2017-04-14T11:09:42.043Z,13.43
2017-04-14T11:10:43.473Z,13.07
2017-04-14T11:11:44.913Z,13.30
2017-04-14T11:12:46.343Z,13.41
2017-04-14T11:13:47.779Z,13.29
2017-04-14T11:14:50.135Z,13.40
2017-04-14T11:15:51.564Z,13.52
2017-04-14T11:16:52.997Z,13.73
2017-04-14T11:17:54.432Z,13.81
2017-04-14T11:18:55.865Z,13.89
2017-04-14T11:19:57.297Z,14.02
2017-04-14T11:20:58.732Z,14.02
2017-04-14T11:22:00.176Z,13.71
2017-04-14T11:23:01.606Z,13.84
2017-04-14T11:24:03.034Z,13.99
2017-04-14T11:25:04.471Z,14.38
2017-04-14T11:26:05.892Z,14.56
2017-04-14T11:27:07.339Z,14.81
2017-04-14T11:28:08.760Z,14.90
2017-04-14T11:29:10.195Z,14.62
2017-04-14T11:30:11.625Z,14.25
2017-04-14T11:31:13.062Z,14.06
2017-04-14T11:32:14.497Z,14.04
2017-04-14T11:33:15.936Z,14.27
2017-04-14T11:34:17.370Z,14.12
2017-04-14T11:35:18.810Z,13.61
2017-04-14T11:36:20.245Z,13.71
2017-04-14T11:37:21.678Z,13.74
2017-04-14T11:38:23.110Z,13.73
2017-04-14T11:39:24.546Z,13.87
2017-04-14T11:40:25.985Z,13.76
2017-04-14T11:41:27.409Z,13.65
2017-04-14T11:42:28.840Z,13.62
2017-04-14T11:43:30.318Z,13.47
2017-04-14T11:44:31.710Z,13.47
2017-04-14T11:45:33.143Z,13.40
2017-04-14T11:46:34.576Z,13.32
2017-04-14T11:47:36.004Z,13.38
2017-04-14T11:48:37.444Z,13.11
2017-04-14T11:49:38.876Z,12.97
2017-04-14T11:50:40.301Z,12.96
2017-04-14T11:51:41.734Z,12.96
2017-04-14T11:52:43.174Z,12.81
2017-04-14T11:53:44.609Z,12.81
2017-04-14T11:54:46.049Z,12.69
2017-04-14T11:55:47.479Z,12.82
2017-04-14T11:56:48.916Z,12.77
2017-04-14T11:57:50.366Z,12.78
2017-04-14T11:58:51.809Z,12.63
2017-04-14T11:59:53.238Z,12.59
2017-04-14T12:00:54.661Z,12.54
2017-04-14T12:01:56.140Z,12.74
2017-04-14T12:02:57.540Z,12.78
2017-04-14T12:03:58.971Z,12.62
2017-04-14T12:05:00.413Z,12.77
2017-04-14T12:06:01.841Z,12.63
2017-04-14T12:07:03.271Z,12.52
2017-04-14T12:08:04.711Z,12.33
2017-04-14T12:09:06.145Z,12.49
2017-04-14T12:10:07.573Z,12.34
2017-04-14T12:11:09.005Z,12.57
2017-04-14T12:12:10.431Z,12.49
2017-04-14T12:13:11.861Z,12.56
2017-04-14T12:14:13.296Z,12.66
2017-04-14T12:15:14.732Z,12.64
2017-04-14T12:16:16.174Z,12.39
2017-04-14T12:17:17.608Z,12.77
2017-04-14T12:18:19.593Z,12.69
2017-04-14T12:19:21.021Z,12.81
2017-04-14T12:20:22.451Z,12.77
2017-04-14T12:21:23.884Z,12.81
2017-04-14T12:22:25.320Z,12.74
2017-04-14T12:23:26.747Z,12.71
2017-04-14T12:24:28.175Z,12.60
2017-04-14T12:25:29.601Z,12.67
2017-04-14T12:26:31.037Z,12.81
2017-04-14T12:27:32.479Z,12.59
2017-04-14T12:28:33.904Z,12.66
2017-04-14T12:29:35.349Z,12.62
2017-04-14T12:30:36.777Z,12.45
2017-04-14T12:31:38.212Z,12.42
2017-04-14T12:32:39.644Z,12.34
2017-04-14T12:33:41.076Z,12.34
2017-04-14T12:34:42.506Z,12.48
2017-04-14T12:35:43.943Z,12.16
2017-04-14T12:36:45.388Z,12.24
2017-04-14T12:37:46.823Z,12.19
2017-04-14T12:38:48.277Z,12.31
2017-04-14T12:39:49.709Z,12.11
2017-04-14T12:40:51.137Z,12.12
2017-04-14T12:41:52.565Z,12.21
2017-04-14T12:42:54.003Z,12.21
2017-04-14T12:43:55.429Z,12.37
2017-04-14T12:44:56.926Z,12.31
2017-04-14T12:45:58.350Z,12.30
2017-04-14T12:46:59.780Z,12.33
2017-04-14T12:48:01.211Z,12.41
2017-04-14T12:49:02.674Z,12.37
2017-04-14T12:50:04.103Z,12.54
2017-04-14T12:51:06.168Z,12.20
2017-04-14T12:52:07.599Z,12.20
2017-04-14T12:53:09.021Z,12.23
2017-04-14T12:54:10.451Z,12.23
2017-04-14T12:55:11.880Z,12.16
2017-04-14T12:56:13.315Z,12.21
2017-04-14T12:57:14.745Z,12.11
2017-04-14T12:58:16.175Z,12.24
2017-04-14T12:59:17.605Z,12.38
2017-04-14T13:00:19.038Z,12.13
2017-04-14T13:01:20.469Z,12.09
2017-04-14T13:02:21.897Z,12.06
2017-04-14T13:03:23.330Z,12.19
2017-04-14T13:04:24.770Z,12.23
2017-04-14T13:05:26.203Z,12.41
2017-04-14T13:06:27.634Z,12.31
2017-04-14T13:07:29.056Z,12.33
2017-04-14T13:08:30.497Z,12.37
2017-04-14T13:09:31.936Z,12.24
2017-04-14T13:10:33.368Z,12.37
2017-04-14T13:11:34.807Z,12.46
2017-04-14T13:12:36.241Z,12.54
2017-04-14T13:13:37.666Z,12.45
2017-04-14T13:14:39.102Z,12.57
2017-04-14T13:15:40.535Z,12.59
2017-04-14T13:16:41.969Z,12.60
2017-04-14T13:17:43.411Z,12.45
2017-04-14T13:18:44.851Z,12.33
2017-04-14T13:19:46.281Z,12.46
2017-04-14T13:20:47.715Z,12.48
2017-04-14T13:21:49.146Z,12.37
2017-04-14T13:22:50.584Z,12.34
2017-04-14T13:23:52.026Z,12.60
2017-04-14T13:24:53.457Z,12.54
2017-04-14T13:25:54.897Z,12.57
2017-04-14T13:26:56.329Z,12.52
2017-04-14T13:27:57.761Z,12.70
2017-04-14T13:28:59.191Z,12.67
2017-04-14T13:30:00.638Z,12.49
2017-04-14T13:31:02.066Z,12.49
2017-04-14T13:32:04.245Z,12.67
2017-04-14T13:33:05.680Z,12.78
2017-04-14T13:34:07.115Z,12.77
2017-04-14T13:35:08.548Z,12.66
2017-04-14T13:36:09.981Z,12.78
2017-04-14T13:37:11.410Z,12.92
2017-04-14T13:38:12.848Z,12.96
2017-04-14T13:39:14.276Z,13.12
2017-04-14T13:40:15.707Z,13.00
2017-04-14T13:41:17.132Z,12.99
2017-04-14T13:42:18.565Z,12.89
2017-04-14T13:43:20.000Z,12.93
2017-04-14T13:44:21.428Z,12.82
2017-04-14T13:45:22.860Z,12.97
2017-04-14T13:46:24.296Z,12.95
2017-04-14T13:47:25.731Z,13.00
2017-04-14T13:48:27.168Z,12.93
2017-04-14T13:49:28.596Z,12.99
2017-04-14T13:50:30.023Z,12.97
2017-04-14T13:51:31.455Z,12.97
2017-04-14T13:52:32.884Z,13.00
2017-04-14T13:53:34.316Z,12.95
2017-04-14T13:54:35.749Z,12.96
2017-04-14T13:55:37.171Z,12.99
2017-04-14T13:56:38.601Z,13.02
2017-04-14T13:57:40.033Z,12.78
2017-04-14T13:58:41.476Z,12.93
2017-04-14T13:59:42.914Z,12.99
2017-04-14T14:00:44.341Z,12.84
2017-04-14T14:01:45.776Z,12.93
2017-04-14T14:02:47.208Z,12.85
2017-04-14T14:03:48.655Z,12.92
2017-04-14T14:04:50.087Z,13.03
2017-04-14T14:05:51.528Z,12.82
2017-04-14T14:06:52.961Z,12.97
2017-04-14T14:07:54.399Z,12.89
2017-04-14T14:08:55.827Z,12.85
2017-04-14T14:09:57.266Z,12.95
2017-04-14T14:10:58.707Z,12.95
2017-04-14T14:12:00.143Z,12.99
2017-04-14T14:13:01.588Z,12.93
2017-04-14T14:14:03.022Z,12.87
2017-04-14T14:15:04.468Z,12.78
2017-04-14T14:16:05.885Z,12.93
2017-04-14T14:17:07.325Z,12.95
2017-04-14T14:18:08.749Z,12.99
2017-04-14T14:19:10.179Z,12.67
2017-04-14T14:20:11.603Z,12.74
2017-04-14T14:21:13.035Z,12.79
2017-04-14T14:22:14.471Z,12.89
2017-04-14T14:23:15.907Z,12.79
2017-04-14T14:24:18.150Z,12.88
2017-04-14T14:25:19.578Z,12.41
2017-04-14T14:26:21.016Z,12.44
2017-04-14T14:27:22.447Z,12.52
2017-04-14T14:28:23.877Z,12.48
2017-04-14T14:29:25.307Z,12.77
2017-04-14T14:30:26.737Z,12.69
2017-04-14T14:31:28.171Z,12.79
2017-04-14T14:32:29.594Z,12.79
2017-04-14T14:33:31.042Z,12.71
2017-04-14T14:34:32.470Z,12.79
2017-04-14T14:35:33.894Z,12.85
2017-04-14T14:36:35.326Z,12.75
2017-04-14T14:37:36.766Z,12.85
2017-04-14T14:38:38.200Z,12.84
2017-04-14T14:39:39.631Z,12.96
2017-04-14T14:40:41.061Z,12.93
2017-04-14T14:41:43.078Z,12.99
2017-04-14T14:42:44.507Z,12.92
2017-04-14T14:43:45.937Z,12.88
2017-04-14T14:44:47.375Z,12.88
2017-04-14T14:45:48.807Z,12.81
2017-04-14T14:46:50.240Z,12.63
2017-04-14T14:47:51.672Z,12.77
2017-04-14T14:48:53.111Z,12.79
2017-04-14T14:49:54.548Z,12.87
2017-04-14T14:50:55.974Z,12.81
2017-04-14T14:51:57.410Z,12.66
2017-04-14T14:52:59.819Z,12.59
2017-04-14T14:54:01.246Z,12.51
2017-04-14T14:55:02.686Z,12.57
2017-04-14T14:56:04.117Z,12.63
2017-04-14T14:57:05.555Z,12.74
2017-04-14T14:58:06.994Z,12.70
2017-04-14T14:59:08.433Z,12.89
2017-04-14T15:00:09.871Z,12.87
2017-04-14T15:01:11.762Z,12.66
2017-04-14T15:02:12.676Z,12.54
2017-04-14T15:03:14.930Z,12.56
2017-04-14T15:04:17.263Z,12.69
2017-04-14T15:05:17.764Z,12.78
2017-04-14T15:06:19.197Z,12.89
2017-04-14T15:07:20.630Z,12.75
2017-04-14T15:08:22.059Z,12.63
2017-04-14T15:09:23.497Z,12.63
2017-04-14T15:10:25.881Z,12.59
2017-04-14T15:11:27.877Z,12.51
2017-04-14T15:12:29.310Z,12.59
2017-04-14T15:13:30.735Z,12.67
2017-04-14T15:14:32.179Z,12.75
2017-04-14T15:15:33.610Z,12.81
2017-04-14T15:16:35.048Z,12.78
2017-04-14T15:17:36.478Z,12.78
2017-04-14T15:18:37.907Z,12.69
2017-04-14T15:19:39.342Z,12.69
2017-04-14T15:20:40.774Z,12.87
2017-04-14T15:21:42.200Z,12.92
2017-04-14T15:22:44.135Z,12.81
2017-04-14T15:23:45.568Z,12.64
2017-04-14T15:24:47.016Z,12.70
2017-04-14T15:25:48.448Z,12.81
2017-04-14T15:26:49.885Z,12.92
2017-04-14T15:27:51.316Z,12.69
2017-04-14T15:28:52.864Z,12.59
2017-04-14T15:29:54.299Z,12.66
2017-04-14T15:30:55.727Z,12.69
2017-04-14T15:31:57.191Z,12.66
2017-04-14T15:32:58.629Z,12.56
2017-04-14T15:34:00.053Z,12.19
2017-04-14T15:35:01.487Z,12.31
2017-04-14T15:36:02.963Z,12.33
2017-04-14T15:37:04.403Z,12.42
2017-04-14T15:38:05.842Z,12.45
2017-04-14T15:39:07.275Z,12.42
2017-04-14T15:40:08.714Z,12.59
2017-04-14T15:41:10.148Z,12.57
2017-04-14T15:42:11.584Z,12.69
2017-04-14T15:43:13.012Z,12.74
2017-04-14T15:44:14.450Z,12.74
2017-04-14T15:45:15.875Z,12.66
2017-04-14T15:46:17.307Z,12.77
2017-04-14T15:47:18.811Z,12.71
2017-04-14T15:48:20.247Z,12.57
2017-04-14T15:49:21.675Z,12.60
2017-04-14T15:50:23.107Z,12.52
2017-04-14T15:51:24.538Z,12.52
2017-04-14T15:52:25.985Z,12.67
2017-04-14T15:53:27.417Z,12.77
2017-04-14T15:54:28.855Z,12.79
2017-04-14T15:55:30.295Z,12.88
2017-04-14T15:56:31.726Z,12.77
2017-04-14T15:57:33.162Z,12.59
2017-04-14T15:58:34.586Z,12.62
2017-04-14T15:59:36.017Z,12.71
2017-04-14T16:00:37.461Z,12.79
2017-04-14T16:01:38.898Z,12.77
2017-04-14T16:02:40.335Z,12.92
2017-04-14T16:03:41.765Z,12.89
2017-04-14T16:04:43.203Z,12.92
2017-04-14T16:05:44.633Z,12.79
2017-04-14T16:06:46.076Z,12.84
2017-04-14T16:07:47.508Z,12.89
2017-04-14T16:08:48.934Z,12.78
2017-04-14T16:09:50.368Z,12.70
2017-04-14T16:10:51.797Z,12.79
2017-04-14T16:11:53.227Z,12.64
2017-04-14T16:12:54.652Z,12.75
2017-04-14T16:13:56.080Z,12.81
2017-04-14T16:14:57.524Z,12.77
2017-04-14T16:15:58.956Z,12.69
2017-04-14T16:17:00.379Z,12.93
2017-04-14T16:18:01.832Z,12.78
2017-04-14T16:19:03.262Z,12.74
2017-04-14T16:20:04.688Z,12.77
2017-04-14T16:21:06.126Z,12.59
2017-04-14T16:22:07.549Z,12.81
2017-04-14T16:23:08.985Z,12.56
2017-04-14T16:24:10.417Z,12.59
2017-04-14T16:25:11.847Z,12.44
2017-04-14T16:26:13.278Z,12.45
2017-04-14T16:27:14.706Z,12.49
2017-04-14T16:28:16.141Z,12.30
2017-04-14T16:29:17.564Z,12.33
2017-04-14T16:30:18.999Z,12.31
2017-04-14T16:31:20.436Z,12.49
2017-04-14T16:32:21.868Z,12.41
2017-04-14T16:33:23.296Z,12.09
2017-04-14T16:34:24.730Z,12.19
2017-04-14T16:35:26.161Z,12.15
2017-04-14T16:36:27.601Z,12.19
2017-04-14T16:37:29.024Z,12.41
2017-04-14T16:38:30.460Z,12.33
2017-04-14T16:39:31.893Z,12.26
2017-04-14T16:40:33.324Z,12.34
2017-04-14T16:41:34.757Z,12.29
2017-04-14T16:42:37.430Z,12.38
2017-04-14T16:43:38.878Z,12.31
2017-04-14T16:44:40.302Z,12.37
2017-04-14T16:45:41.733Z,12.33
2017-04-14T16:46:43.176Z,12.33
2017-04-14T16:47:44.627Z,12.23
2017-04-14T16:48:46.047Z,12.46
2017-04-14T16:49:47.489Z,12.34
2017-04-14T16:50:49.750Z,12.45
2017-04-14T16:51:51.182Z,12.23
2017-04-14T16:52:52.608Z,11.97
2017-04-14T16:53:54.043Z,12.12
2017-04-14T16:54:55.480Z,11.96
2017-04-14T16:55:56.907Z,11.94
2017-04-14T16:56:58.341Z,12.19
2017-04-14T16:57:59.788Z,12.06
2017-04-14T16:59:01.231Z,11.85
2017-04-14T17:00:02.667Z,12.05
2017-04-14T17:01:04.107Z,12.06
2017-04-14T17:02:05.551Z,12.06
2017-04-14T17:03:06.992Z,12.05
2017-04-14T17:04:08.424Z,12.01
2017-04-14T17:05:09.870Z,11.99
2017-04-14T17:06:11.307Z,12.04
2017-04-14T17:07:12.740Z,11.90
2017-04-14T17:08:14.169Z,11.96
2017-04-14T17:09:15.603Z,11.93
2017-04-14T17:10:17.042Z,11.78
2017-04-14T17:11:18.472Z,11.77
2017-04-14T17:12:19.900Z,11.80
2017-04-14T17:13:21.323Z,11.90
2017-04-14T17:14:23.733Z,11.74
2017-04-14T17:15:25.125Z,11.82
2017-04-14T17:16:26.543Z,11.94
2017-04-14T17:17:27.974Z,11.93
2017-04-14T17:18:29.418Z,11.82
2017-04-14T17:19:30.847Z,11.85
2017-04-14T17:20:32.275Z,11.83
2017-04-14T17:21:33.709Z,11.96
2017-04-14T17:22:35.135Z,11.85
2017-04-14T17:23:36.579Z,11.87
2017-04-14T17:24:38.019Z,11.90
2017-04-14T17:25:39.442Z,12.09
2017-04-14T17:26:40.869Z,12.04
2017-04-14T17:27:42.295Z,12.09
2017-04-14T17:28:43.720Z,12.01
2017-04-14T17:29:45.165Z,12.08
2017-04-14T17:30:46.608Z,12.11
2017-04-14T17:31:48.035Z,11.94
2017-04-14T17:32:49.466Z,11.96
2017-04-14T17:33:50.970Z,11.68
2017-04-14T17:34:52.396Z,11.61
2017-04-14T17:35:53.834Z,11.56
2017-04-14T17:36:55.266Z,11.50
2017-04-14T17:37:56.695Z,11.29
2017-04-14T17:38:58.124Z,11.28
2017-04-14T17:39:59.552Z,11.32
2017-04-14T17:41:00.977Z,11.19
2017-04-14T17:42:02.403Z,11.13
2017-04-14T17:43:03.844Z,11.13
2017-04-14T17:44:05.271Z,11.16
2017-04-14T17:45:06.702Z,11.19
2017-04-14T17:46:08.131Z,11.20
2017-04-14T17:47:09.562Z,11.24
2017-04-14T17:48:10.992Z,11.17
2017-04-14T17:49:12.428Z,11.20
2017-04-14T17:50:13.854Z,11.20
2017-04-14T17:51:15.290Z,11.17
2017-04-14T17:52:16.716Z,11.16
2017-04-14T17:53:18.157Z,11.46
2017-04-14T17:54:19.587Z,11.32
2017-04-14T17:55:21.014Z,11.25
2017-04-14T17:56:22.443Z,11.32
2017-04-14T17:57:23.870Z,11.34
2017-04-14T17:58:25.298Z,11.31
2017-04-14T17:59:26.729Z,11.44
2017-04-14T18:00:28.160Z,11.31
2017-04-14T18:01:29.595Z,11.32
2017-04-14T18:02:31.021Z,11.21
2017-04-14T18:03:32.452Z,11.25
2017-04-14T18:04:33.885Z,11.11
2017-04-14T18:05:35.317Z,11.14
2017-04-14T18:06:37.607Z,11.20
2017-04-14T18:07:39.034Z,11.14
2017-04-14T18:08:40.456Z,11.27
2017-04-14T18:09:41.896Z,11.39
2017-04-14T18:10:43.332Z,11.49
2017-04-14T18:11:44.756Z,11.35
2017-04-14T18:12:46.181Z,11.35
2017-04-14T18:13:47.606Z,11.44
2017-04-14T18:14:49.042Z,11.43
2017-04-14T18:15:50.494Z,11.52
2017-04-14T18:16:51.918Z,11.44
2017-04-14T18:17:53.355Z,11.64
2017-04-14T18:18:54.786Z,11.74
2017-04-14T18:19:56.221Z,11.75
2017-04-14T18:20:57.654Z,11.59
2017-04-14T18:21:59.081Z,11.65
2017-04-14T18:23:00.519Z,11.49
2017-04-14T18:24:01.950Z,11.31
2017-04-14T18:25:03.377Z,11.41
2017-04-14T18:26:04.825Z,11.54
2017-04-14T18:27:06.229Z,11.56
2017-04-14T18:28:07.653Z,11.47
2017-04-14T18:29:09.092Z,11.53
2017-04-14T18:30:10.526Z,11.36
2017-04-14T18:31:11.954Z,11.43
2017-04-14T18:32:13.374Z,11.50
2017-04-14T18:33:14.805Z,11.46
2017-04-14T18:34:16.231Z,11.49
2017-04-14T18:35:17.663Z,11.53
2017-04-14T18:36:19.119Z,11.41
2017-04-14T18:37:20.557Z,11.50
2017-04-14T18:38:22.413Z,11.50
2017-04-14T18:39:26.418Z,11.44
2017-04-14T18:40:27.858Z,11.54
2017-04-14T18:41:29.287Z,11.36
2017-04-14T18:42:31.272Z,11.19
2017-04-14T18:43:32.709Z,11.10
2017-04-14T18:44:35.097Z,11.09
2017-04-14T18:45:38.096Z,11.09
2017-04-14T18:46:39.529Z,11.07
2017-04-14T18:47:40.964Z,11.01
2017-04-14T18:48:42.394Z,11.09
2017-04-14T18:49:43.834Z,11.17
2017-04-14T18:50:45.268Z,11.13
2017-04-14T18:51:46.699Z,10.99
2017-04-14T18:52:48.130Z,11.01
2017-04-14T18:53:49.560Z,10.98
2017-04-14T18:54:50.987Z,10.92
2017-04-14T18:55:53.260Z,10.95
2017-04-14T18:56:54.701Z,10.77
2017-04-14T18:57:56.135Z,10.95
2017-04-14T18:58:58.454Z,10.99
2017-04-14T19:00:00.731Z,11.07
2017-04-14T19:01:02.166Z,11.06
2017-04-14T19:02:03.595Z,11.02
2017-04-14T19:03:05.019Z,11.16
2017-04-14T19:04:06.468Z,11.16
2017-04-14T19:05:07.901Z,11.06
2017-04-14T19:06:09.329Z,10.98
2017-04-14T19:07:11.596Z,10.99
2017-04-14T19:08:13.892Z,10.94
2017-04-14T19:09:15.328Z,11.01
2017-04-14T19:10:17.733Z,11.10
2017-04-14T19:11:19.163Z,11.11
2017-04-14T19:12:21.154Z,11.14
2017-04-14T19:13:23.119Z,11.14
2017-04-14T19:14:25.139Z,11.14
2017-04-14T19:15:27.265Z,11.20
2017-04-14T19:16:29.286Z,11.13
2017-04-14T19:17:31.270Z,11.11
2017-04-14T19:18:33.666Z,10.94
2017-04-14T19:19:37.958Z,10.96
2017-04-14T19:20:39.391Z,11.02
2017-04-14T19:21:41.688Z,11.10
2017-04-14T19:22:43.968Z,11.07
2017-04-14T19:23:46.154Z,10.96
2017-04-14T19:24:47.586Z,10.95
2017-04-14T19:25:49.878Z,10.98
2017-04-14T19:26:52.016Z,10.96
2017-04-14T19:27:53.449Z,11.07
2017-04-14T19:28:55.762Z,11.03
2017-04-14T19:29:57.964Z,10.98
2017-04-14T19:30:59.396Z,10.94
2017-04-14T19:32:01.637Z,10.89
2017-04-14T19:33:03.836Z,10.91
2017-04-14T19:34:05.993Z,10.80
2017-04-14T19:35:08.166Z,10.83
2017-04-14T19:36:09.601Z,10.63
2017-04-14T19:37:11.792Z,10.66
2017-04-14T19:38:13.915Z,10.55
2017-04-14T19:39:15.968Z,10.51
2017-04-14T19:40:18.383Z,10.52
2017-04-14T19:41:20.515Z,10.42
2017-04-14T19:42:22.723Z,10.47
2017-04-14T19:43:24.143Z,10.55
2017-04-14T19:44:26.248Z,10.53
2017-04-14T19:45:28.391Z,10.59
2017-04-14T19:46:30.488Z,10.70
2017-04-14T19:47:32.725Z,10.74